Redville, Wisconsin
Current Conditions -  °F | °C
As of 6:15 AM on Monday 20 Oct 2014 (Local Time) from KMDZ Reporting Station
Clear Clear  
Wind Chill: 38°   Ceiling: Unl
Heat Index: 38°   Visibility: 10mi
Dew Point: 37°   Wind: 3mph
Humidity: 97%   Direction: 290°WNW
Pressure: 29.86"   Gusts: NA
Location:  45.0116°N, 90.6109°W
Report Text: KMDZ 201115Z AUTO 29003KT 10SM CLR 03/03 A2986 RMK AO2 T00320028
Loading
Personal Weather Stations






























Interactive Weather Map
Tropical Storm Tracking
New forecast layout! Learn more

10-Day Weather Forecast

Advertisements
Track Severe Weather on mobile